createdAt,value
2018-01-25T00:00:53.676Z,4.50
2018-01-25T00:03:21.156Z,8.07
2018-01-25T00:05:49.511Z,3.80
2018-01-25T00:08:17.143Z,4.90
2018-01-25T00:10:44.588Z,4.27
2018-01-25T00:13:12.052Z,5.50
2018-01-25T00:15:39.504Z,5.30
2018-01-25T00:18:06.957Z,6.20
2018-01-25T00:20:34.409Z,6.93
2018-01-25T00:23:01.852Z,5.27
2018-01-25T00:25:29.288Z,7.20
2018-01-25T00:27:56.743Z,5.00
2018-01-25T00:30:24.185Z,4.67
2018-01-25T00:32:51.636Z,5.30
2018-01-25T00:35:19.108Z,5.70
2018-01-25T00:37:46.557Z,5.83
2018-01-25T00:40:14.005Z,4.77
2018-01-25T00:42:41.455Z,5.10
2018-01-25T00:45:08.897Z,5.23
2018-01-25T00:47:36.352Z,6.00
2018-01-25T00:50:03.800Z,5.93
2018-01-25T00:52:31.255Z,5.30
2018-01-25T00:54:58.698Z,5.80
2018-01-25T00:57:26.124Z,5.50
2018-01-25T00:59:53.560Z,5.07
2018-01-25T01:02:21.017Z,5.27
2018-01-25T01:04:48.441Z,4.67
2018-01-25T01:07:15.879Z,4.70
2018-01-25T01:09:44.101Z,4.90
2018-01-25T01:12:11.531Z,4.40
2018-01-25T01:14:38.981Z,6.33
2018-01-25T01:17:06.437Z,5.03
2018-01-25T01:19:33.880Z,6.33
2018-01-25T01:22:01.328Z,6.90
2018-01-25T01:24:28.781Z,5.60
2018-01-25T01:26:56.980Z,5.27
2018-01-25T01:29:24.424Z,5.43
2018-01-25T01:31:51.864Z,5.83
2018-01-25T01:34:19.304Z,5.13
2018-01-25T01:36:46.736Z,5.07
2018-01-25T01:39:14.192Z,5.70
2018-01-25T01:41:41.636Z,5.90
2018-01-25T01:44:09.092Z,5.57
2018-01-25T01:46:36.528Z,8.00
2018-01-25T01:49:03.997Z,5.40
2018-01-25T01:51:31.432Z,6.07
2018-01-25T01:53:58.877Z,5.53
2018-01-25T01:56:26.316Z,7.27
2018-01-25T01:58:53.744Z,5.70
2018-01-25T02:01:21.208Z,6.73
2018-01-25T02:03:48.649Z,5.20
2018-01-25T02:06:16.100Z,7.70
2018-01-25T02:08:43.550Z,7.50
2018-01-25T02:11:10.997Z,7.00
2018-01-25T02:13:38.449Z,5.73
2018-01-25T02:16:05.906Z,6.10
2018-01-25T02:18:33.365Z,6.77
2018-01-25T02:21:00.821Z,5.83
2018-01-25T02:23:28.255Z,5.77
2018-01-25T02:25:56.480Z,5.97
2018-01-25T02:28:23.937Z,4.10
2018-01-25T02:30:51.392Z,6.27
2018-01-25T02:33:18.817Z,4.03
2018-01-25T02:35:46.287Z,4.13
2018-01-25T02:38:13.733Z,4.23
2018-01-25T02:40:41.177Z,4.10
2018-01-25T02:43:08.627Z,5.63
2018-01-25T02:45:36.064Z,4.73
2018-01-25T02:48:03.511Z,4.40
2018-01-25T02:50:30.956Z,4.37
2018-01-25T02:52:58.414Z,4.97
2018-01-25T02:55:25.855Z,4.40
2018-01-25T02:57:53.292Z,3.90
2018-01-25T03:00:20.741Z,3.50
2018-01-25T03:02:48.194Z,4.27
2018-01-25T03:05:15.632Z,4.23
2018-01-25T03:07:43.089Z,4.03
2018-01-25T03:10:10.524Z,3.90
2018-01-25T03:12:37.980Z,4.83
2018-01-25T03:15:06.193Z,5.23
2018-01-25T03:17:33.655Z,4.20
2018-01-25T03:20:01.093Z,4.10
2018-01-25T03:22:28.541Z,5.40
2018-01-25T03:24:55.989Z,5.13
2018-01-25T03:27:24.209Z,5.50
2018-01-25T03:29:51.644Z,3.90
2018-01-25T03:32:19.076Z,4.37
2018-01-25T03:34:47.336Z,5.27
2018-01-25T03:37:14.788Z,4.70
2018-01-25T03:39:42.236Z,5.67
2018-01-25T03:42:09.670Z,5.33
2018-01-25T03:44:37.889Z,4.93
2018-01-25T03:47:05.315Z,4.03
2018-01-25T03:49:32.764Z,3.70
2018-01-25T03:52:00.196Z,3.93
2018-01-25T03:54:27.630Z,4.70
2018-01-25T03:56:55.086Z,4.73
2018-01-25T03:59:22.544Z,3.83
2018-01-25T04:01:49.973Z,5.40
2018-01-25T04:04:17.419Z,5.07
2018-01-25T04:06:44.857Z,3.93
2018-01-25T04:09:12.295Z,4.17
2018-01-25T04:11:39.755Z,3.17
2018-01-25T04:14:07.241Z,5.00
2018-01-25T04:16:34.671Z,4.83
2018-01-25T04:19:02.147Z,4.93
2018-01-25T04:21:29.596Z,4.77
2018-01-25T04:23:57.107Z,6.90
2018-01-25T04:26:24.548Z,6.17
2018-01-25T04:28:51.992Z,4.50
2018-01-25T04:31:19.439Z,4.87
2018-01-25T04:33:46.872Z,5.43
2018-01-25T04:36:14.316Z,5.90
2018-01-25T04:38:41.755Z,4.83
2018-01-25T04:41:09.226Z,4.80
2018-01-25T04:43:36.701Z,4.00
2018-01-25T04:46:04.148Z,4.00
2018-01-25T04:48:31.576Z,4.50
2018-01-25T04:50:59.040Z,4.00
2018-01-25T04:53:26.468Z,4.13
2018-01-25T04:55:54.688Z,6.30
2018-01-25T04:58:22.146Z,8.00
2018-01-25T05:00:49.595Z,5.83
2018-01-25T05:03:17.046Z,4.80
2018-01-25T05:05:44.474Z,5.60
2018-01-25T05:08:11.943Z,4.50
2018-01-25T05:10:39.379Z,4.60
2018-01-25T05:13:07.611Z,5.33
2018-01-25T05:15:35.052Z,10.03
2018-01-25T05:18:03.264Z,4.10
2018-01-25T05:20:30.708Z,4.83
2018-01-25T05:23:01.626Z,4.80
2018-01-25T05:25:29.060Z,5.03
2018-01-25T05:27:56.491Z,4.17
2018-01-25T05:30:23.923Z,4.73
2018-01-25T05:32:51.371Z,4.30
2018-01-25T05:35:19.154Z,5.30
2018-01-25T05:37:46.684Z,3.87
2018-01-25T05:40:14.349Z,5.43
2018-01-25T05:42:41.807Z,4.70
2018-01-25T05:45:09.260Z,3.90
2018-01-25T05:47:40.123Z,5.40
2018-01-25T05:50:07.556Z,6.87
2018-01-25T05:52:35.000Z,3.90
2018-01-25T05:55:02.451Z,5.60
2018-01-25T05:57:29.888Z,6.90
2018-01-25T05:59:57.324Z,5.43
2018-01-25T06:02:24.780Z,8.77
2018-01-25T06:04:53.012Z,5.13
2018-01-25T06:07:20.456Z,8.20
2018-01-25T06:09:47.905Z,6.53
2018-01-25T06:12:15.355Z,7.27
2018-01-25T06:14:42.834Z,7.50
2018-01-25T06:17:10.304Z,5.60
2018-01-25T06:19:37.762Z,6.07
2018-01-25T06:22:05.215Z,6.73
2018-01-25T06:24:32.699Z,5.80
2018-01-25T06:27:00.164Z,6.37
2018-01-25T06:29:27.637Z,5.60
2018-01-25T06:31:55.072Z,5.13
2018-01-25T06:34:22.525Z,5.07
2018-01-25T06:36:49.999Z,5.23
2018-01-25T06:39:17.453Z,4.43
2018-01-25T06:41:44.891Z,4.57
2018-01-25T06:44:12.370Z,4.00
2018-01-25T06:46:39.812Z,4.57
2018-01-25T06:49:07.279Z,4.97
2018-01-25T06:51:34.715Z,4.33
2018-01-25T06:54:02.147Z,4.53
2018-01-25T06:56:29.601Z,4.30
2018-01-25T06:58:57.058Z,4.20
2018-01-25T07:01:24.525Z,4.53
2018-01-25T07:03:51.968Z,5.17
2018-01-25T07:06:19.604Z,7.23
2018-01-25T07:08:47.033Z,4.77
2018-01-25T07:11:14.484Z,4.90
2018-01-25T07:13:41.971Z,6.00
2018-01-25T07:16:09.457Z,5.00
2018-01-25T07:18:36.925Z,7.57
2018-01-25T07:21:04.376Z,5.30
2018-01-25T07:23:31.816Z,7.03
2018-01-25T07:25:59.273Z,4.70
2018-01-25T07:28:26.712Z,5.13
2018-01-25T07:30:54.172Z,5.73
2018-01-25T07:33:21.628Z,6.30
2018-01-25T07:35:49.096Z,6.80
2018-01-25T07:38:16.552Z,5.13
2018-01-25T07:40:44.035Z,5.93
2018-01-25T07:43:11.489Z,5.97
2018-01-25T07:45:38.941Z,5.50
2018-01-25T07:48:06.395Z,7.50
2018-01-25T07:50:33.863Z,6.77
2018-01-25T07:53:01.304Z,7.33
2018-01-25T07:55:28.788Z,5.77
2018-01-25T08:00:53.976Z,4.87
2018-01-25T08:03:21.468Z,5.20
2018-01-25T08:05:49.697Z,4.73
2018-01-25T08:08:17.174Z,5.60
2018-01-25T08:10:45.853Z,5.43
2018-01-25T08:13:19.044Z,5.43
2018-01-25T08:15:46.496Z,5.60
2018-01-25T08:18:14.021Z,4.83
2018-01-25T08:20:41.517Z,5.73
2018-01-25T08:23:08.977Z,6.60
2018-01-25T08:25:36.404Z,6.63
2018-01-25T08:28:03.877Z,6.13
2018-01-25T08:30:31.340Z,5.13
2018-01-25T08:32:59.265Z,6.20
2018-01-25T08:35:26.720Z,6.90
2018-01-25T08:37:54.158Z,4.23
2018-01-25T08:40:22.393Z,6.37
2018-01-25T08:42:49.862Z,4.50
2018-01-25T08:45:17.452Z,4.13
2018-01-25T08:47:45.661Z,6.90
2018-01-25T08:50:13.128Z,8.50
2018-01-25T08:52:40.580Z,9.80
2018-01-25T08:55:08.067Z,6.40
2018-01-25T08:57:35.574Z,5.63
2018-01-25T09:00:03.137Z,4.50
2018-01-25T09:02:32.564Z,5.27
2018-01-25T09:05:00.022Z,4.57
2018-01-25T09:07:27.474Z,7.17
2018-01-25T09:09:54.940Z,5.90
2018-01-25T09:12:22.395Z,8.20
2018-01-25T09:14:49.870Z,6.33
2018-01-25T09:17:17.324Z,4.60
2018-01-25T09:19:44.857Z,4.90
2018-01-25T09:22:12.331Z,5.03
2018-01-25T09:24:39.804Z,5.90
2018-01-25T09:27:07.281Z,5.63
2018-01-25T09:29:35.479Z,5.87
2018-01-25T09:32:02.944Z,6.43
2018-01-25T09:34:30.433Z,5.93
2018-01-25T09:36:57.916Z,5.17
2018-01-25T09:39:25.396Z,6.07
2018-01-25T09:41:52.852Z,5.80
2018-01-25T09:44:20.333Z,5.20
2018-01-25T09:46:47.846Z,5.13
2018-01-25T09:49:15.299Z,5.43
2018-01-25T09:51:42.812Z,6.00
2018-01-25T09:54:10.267Z,5.17
2018-01-25T09:56:37.744Z,5.47
2018-01-25T09:59:05.229Z,7.20
2018-01-25T10:01:32.708Z,7.50
2018-01-25T10:04:00.112Z,7.97
2018-01-25T10:06:27.586Z,7.90
2018-01-25T10:08:55.024Z,6.20
2018-01-25T10:11:22.507Z,6.13
2018-01-25T10:13:49.956Z,8.73
2018-01-25T10:16:17.409Z,5.30
2018-01-25T10:18:44.844Z,5.60
2018-01-25T10:21:12.276Z,6.20
2018-01-25T10:23:39.748Z,6.83
2018-01-25T10:26:07.983Z,5.07
2018-01-25T10:28:35.432Z,5.30
2018-01-25T10:31:03.632Z,5.30
2018-01-25T10:33:31.073Z,6.13
2018-01-25T10:35:58.520Z,7.60
2018-01-25T10:38:26.720Z,4.80
2018-01-25T10:40:54.232Z,5.03
2018-01-25T10:43:21.700Z,4.93
2018-01-25T10:45:49.992Z,5.50
2018-01-25T10:48:17.380Z,5.17
2018-01-25T10:50:44.864Z,6.00
2018-01-25T10:53:12.344Z,6.10
2018-01-25T10:55:39.812Z,4.83
2018-01-25T10:58:07.242Z,4.53
2018-01-25T11:00:40.395Z,7.27
2018-01-25T11:03:07.896Z,7.63
2018-01-25T11:05:35.351Z,5.50
2018-01-25T11:08:02.844Z,6.13
2018-01-25T11:10:30.300Z,5.23
2018-01-25T11:12:58.105Z,7.10
2018-01-25T11:15:25.560Z,5.70
2018-01-25T11:17:53.036Z,5.20
2018-01-25T11:20:20.504Z,4.80
2018-01-25T11:22:48.040Z,5.60
2018-01-25T11:25:15.504Z,6.47
2018-01-25T11:27:42.956Z,5.07
2018-01-25T11:30:10.412Z,5.40
2018-01-25T11:32:37.860Z,9.93
2018-01-25T11:35:05.366Z,8.20
2018-01-25T11:37:32.810Z,6.20
2018-01-25T11:40:00.249Z,8.23
2018-01-25T11:42:27.736Z,6.37
2018-01-25T11:44:55.185Z,8.30
2018-01-25T11:47:22.648Z,5.40
2018-01-25T11:49:50.103Z,4.90
2018-01-25T11:52:17.552Z,5.50
2018-01-25T11:54:45.000Z,4.67
2018-01-25T11:57:12.444Z,5.87
2018-01-25T11:59:39.880Z,5.23
2018-01-25T12:02:07.342Z,5.20
2018-01-25T12:04:34.784Z,4.63
2018-01-25T12:07:02.235Z,9.40
2018-01-25T12:09:29.780Z,5.20
2018-01-25T12:11:57.109Z,4.30
2018-01-25T12:14:24.572Z,3.50
2018-01-25T12:16:52.042Z,5.57
2018-01-25T12:19:19.481Z,5.20
2018-01-25T12:21:46.927Z,3.87
2018-01-25T12:24:15.228Z,4.30
2018-01-25T12:26:42.601Z,5.17
2018-01-25T12:29:10.043Z,6.80
2018-01-25T12:31:37.476Z,4.60
2018-01-25T12:34:04.945Z,5.00
2018-01-25T12:36:32.390Z,4.23
2018-01-25T12:38:59.865Z,4.30
2018-01-25T12:41:27.312Z,4.40
2018-01-25T12:43:54.784Z,4.97
2018-01-25T12:46:22.211Z,5.23
2018-01-25T12:48:49.662Z,5.07
2018-01-25T12:51:17.878Z,5.20
2018-01-25T12:53:45.340Z,5.23
2018-01-25T12:56:12.768Z,5.50
2018-01-25T12:58:40.216Z,5.20
2018-01-25T13:01:08.436Z,7.60
2018-01-25T13:03:35.883Z,6.60
2018-01-25T13:06:03.328Z,5.83
2018-01-25T13:08:30.781Z,7.20
2018-01-25T13:10:58.241Z,5.90
2018-01-25T13:13:25.696Z,5.97
2018-01-25T13:15:53.161Z,6.77
2018-01-25T13:18:20.636Z,5.53
2018-01-25T13:20:48.081Z,7.87
2018-01-25T13:23:15.557Z,7.50
2018-01-25T13:25:43.003Z,11.33
2018-01-25T13:28:10.464Z,7.40
2018-01-25T13:30:37.951Z,5.80
2018-01-25T13:33:10.969Z,7.50
2018-01-25T13:35:38.436Z,5.23
2018-01-25T13:38:05.919Z,7.83
2018-01-25T13:40:33.416Z,4.77
2018-01-25T13:43:01.612Z,6.53
2018-01-25T13:45:29.093Z,6.53
2018-01-25T13:47:56.554Z,7.50
2018-01-25T13:50:24.033Z,5.27
2018-01-25T13:52:51.525Z,5.87
2018-01-25T13:55:18.993Z,6.87
2018-01-25T13:57:46.463Z,7.00
2018-01-25T14:00:13.929Z,6.63
2018-01-25T14:02:41.379Z,6.57
2018-01-25T14:05:08.884Z,5.70
2018-01-25T14:07:36.352Z,5.27
2018-01-25T14:10:03.807Z,6.60
2018-01-25T14:12:32.040Z,10.13
2018-01-25T14:14:59.504Z,5.23
2018-01-25T14:17:26.976Z,12.33
2018-01-25T14:19:54.466Z,6.70
2018-01-25T14:22:21.921Z,8.53
2018-01-25T14:24:49.373Z,5.67
2018-01-25T14:27:17.596Z,9.80
2018-01-25T14:29:45.052Z,6.43
2018-01-25T14:32:12.567Z,6.70
2018-01-25T14:34:40.020Z,8.53
2018-01-25T14:37:07.512Z,6.77
2018-01-25T14:39:34.952Z,6.50
2018-01-25T14:42:02.440Z,7.90
2018-01-25T14:44:29.912Z,6.83
2018-01-25T14:46:57.366Z,7.43
2018-01-25T14:49:24.844Z,8.90
2018-01-25T14:51:52.313Z,8.30
2018-01-25T14:54:19.812Z,9.30
2018-01-25T14:56:47.278Z,8.87
2018-01-25T14:59:14.761Z,8.03
2018-01-25T15:01:42.240Z,8.97
2018-01-25T15:04:09.708Z,7.97
2018-01-25T15:06:37.972Z,8.70
2018-01-25T15:09:05.439Z,13.47
2018-01-25T15:11:32.896Z,8.50
2018-01-25T15:14:01.128Z,8.93
2018-01-25T15:16:28.619Z,8.10
2018-01-25T15:18:56.092Z,9.93
2018-01-25T15:21:23.574Z,11.27
2018-01-25T15:23:51.039Z,11.77
2018-01-25T15:26:19.280Z,9.67
2018-01-25T15:28:47.503Z,12.80
2018-01-25T15:31:14.982Z,12.43
2018-01-25T15:33:42.436Z,7.43
2018-01-25T15:36:09.909Z,8.43
2018-01-25T15:38:37.397Z,9.40
2018-01-25T15:41:04.847Z,9.37
2018-01-25T15:43:32.283Z,7.80
2018-01-25T15:46:00.512Z,8.73
2018-01-25T15:48:27.976Z,9.10
2018-01-25T15:50:55.423Z,12.17
2018-01-25T15:53:22.877Z,11.33
2018-01-25T15:55:50.347Z,8.60
2018-01-25T15:58:17.807Z,8.67
2018-01-25T16:00:45.293Z,12.30
2018-01-25T16:03:12.802Z,11.90
2018-01-25T16:05:40.338Z,12.23
2018-01-25T16:08:07.837Z,16.00
2018-01-25T16:10:35.309Z,12.90
2018-01-25T16:13:02.756Z,28.23
2018-01-25T16:15:30.216Z,18.57
2018-01-25T16:17:57.672Z,19.10
2018-01-25T16:20:25.124Z,12.47
2018-01-25T16:22:52.734Z,12.07
2018-01-25T16:25:20.989Z,15.60
2018-01-25T16:27:48.416Z,10.63
2018-01-25T16:30:17.935Z,23.30
2018-01-25T16:32:45.413Z,87.57
2018-01-25T16:35:12.910Z,37.90
2018-01-25T16:37:40.389Z,12.53
2018-01-25T16:40:07.864Z,9.50
2018-01-25T16:42:35.315Z,9.80
2018-01-25T16:45:02.798Z,8.97
2018-01-25T16:47:30.298Z,11.60
2018-01-25T16:49:57.751Z,10.43
2018-01-25T16:52:25.241Z,7.90
2018-01-25T16:54:52.704Z,8.20
2018-01-25T16:57:20.222Z,9.97
2018-01-25T16:59:47.687Z,9.50
2018-01-25T17:02:15.220Z,9.80
2018-01-25T17:04:42.696Z,9.40
2018-01-25T17:07:10.327Z,50.20
2018-01-25T17:09:38.179Z,63.67
2018-01-25T17:12:06.447Z,44.37
2018-01-25T17:14:37.663Z,90.00
2018-01-25T17:17:05.159Z,52.70
2018-01-25T17:19:32.589Z,14.63
2018-01-25T17:22:00.091Z,9.70
2018-01-25T17:24:27.545Z,19.10
2018-01-25T17:26:55.049Z,40.00
2018-01-25T17:29:22.457Z,40.77
2018-01-25T17:31:49.900Z,51.33
2018-01-25T17:34:18.148Z,11.23
2018-01-25T17:37:01.899Z,9.20
2018-01-25T17:39:29.336Z,8.43
2018-01-25T17:42:03.837Z,13.50
2018-01-25T17:44:43.234Z,11.53
2018-01-25T17:47:12.180Z,9.17
2018-01-25T17:49:39.624Z,11.07
2018-01-25T17:52:07.183Z,10.70
2018-01-25T17:54:49.002Z,12.57
2018-01-25T17:57:16.440Z,10.93
2018-01-25T17:59:48.341Z,14.00
2018-01-25T18:02:15.807Z,12.13
2018-01-25T18:04:43.483Z,13.43
2018-01-25T18:07:10.910Z,11.60
2018-01-25T18:09:39.159Z,28.43
2018-01-25T18:12:06.639Z,23.53
2018-01-25T18:14:34.870Z,29.70
2018-01-25T18:17:03.321Z,19.30
2018-01-25T18:19:31.019Z,16.17
2018-01-25T18:22:02.340Z,14.50
2018-01-25T18:24:29.800Z,11.40
2018-01-25T18:26:58.012Z,10.30
2018-01-25T18:29:25.460Z,9.60
2018-01-25T18:31:52.923Z,11.93
2018-01-25T18:34:20.381Z,9.37
2018-01-25T18:36:47.824Z,10.63
2018-01-25T18:39:15.288Z,12.20
2018-01-25T18:41:42.765Z,12.60
2018-01-25T18:44:10.317Z,9.40
2018-01-25T18:46:37.756Z,14.00
2018-01-25T18:49:05.221Z,10.60
2018-01-25T18:51:32.672Z,11.87
2018-01-25T18:54:00.111Z,10.70
2018-01-25T18:56:27.572Z,11.50
2018-01-25T18:58:55.057Z,12.07
2018-01-25T19:01:24.490Z,10.40
2018-01-25T19:03:51.995Z,11.37
2018-01-25T19:06:19.450Z,13.70
2018-01-25T19:08:46.940Z,13.43
2018-01-25T19:11:14.394Z,13.40
2018-01-25T19:13:41.872Z,13.80
2018-01-25T19:16:09.404Z,11.77
2018-01-25T19:18:36.859Z,17.20
2018-01-25T19:21:04.324Z,21.43
2018-01-25T19:23:31.817Z,19.77
2018-01-25T19:25:59.413Z,15.47
2018-01-25T19:28:26.876Z,15.50
2018-01-25T19:30:54.356Z,19.47
2018-01-25T19:33:21.889Z,15.10
2018-01-25T19:35:49.368Z,16.83
2018-01-25T19:38:16.922Z,13.33
2018-01-25T19:40:44.416Z,14.60
2018-01-25T19:43:12.960Z,16.03
2018-01-25T19:45:53.953Z,13.20
2018-01-25T19:48:22.138Z,12.70
2018-01-25T19:50:49.563Z,12.60
2018-01-25T19:53:17.051Z,11.77
2018-01-25T19:55:44.459Z,11.53
2018-01-25T19:58:11.895Z,15.50
2018-01-25T20:00:39.323Z,12.60
2018-01-25T20:03:06.767Z,12.70
2018-01-25T20:05:34.200Z,19.63
2018-01-25T20:08:01.660Z,11.20
2018-01-25T20:10:29.079Z,11.50
2018-01-25T20:12:57.320Z,12.50
2018-01-25T20:15:24.746Z,15.07
2018-01-25T20:17:52.198Z,11.93
2018-01-25T20:20:19.623Z,13.77
2018-01-25T20:22:47.132Z,10.37
2018-01-25T20:25:14.566Z,12.23
2018-01-25T20:27:41.996Z,12.70
2018-01-25T20:30:09.440Z,14.00
2018-01-25T20:32:36.868Z,11.07
2018-01-25T20:35:04.428Z,13.20
2018-01-25T20:37:31.855Z,14.23
2018-01-25T20:39:59.291Z,11.83
2018-01-25T20:42:26.720Z,13.03
2018-01-25T20:44:54.924Z,18.27
2018-01-25T20:47:22.351Z,10.70
2018-01-25T20:49:49.789Z,15.97
2018-01-25T20:52:17.216Z,16.20
2018-01-25T20:54:44.651Z,14.07
2018-01-25T20:57:12.071Z,12.17
2018-01-25T20:59:39.507Z,13.70
2018-01-25T21:02:06.939Z,14.00
2018-01-25T21:04:34.390Z,14.57
2018-01-25T21:07:01.815Z,14.30
2018-01-25T21:09:30.024Z,17.23
2018-01-25T21:11:57.455Z,14.70
2018-01-25T21:14:24.880Z,14.53
2018-01-25T21:16:52.314Z,15.00
2018-01-25T21:19:19.747Z,16.23
2018-01-25T21:21:47.204Z,16.20
2018-01-25T21:24:14.603Z,19.13
2018-01-25T21:26:42.040Z,13.10
2018-01-25T21:29:09.589Z,14.47
2018-01-25T21:31:37.018Z,19.17
2018-01-25T21:34:04.592Z,12.77
2018-01-25T21:36:32.031Z,14.10
2018-01-25T21:38:59.455Z,12.30
2018-01-25T21:41:26.893Z,13.60
2018-01-25T21:43:54.323Z,15.40
2018-01-25T21:46:21.764Z,13.30
2018-01-25T21:48:49.187Z,13.93
2018-01-25T21:51:17.384Z,17.43
2018-01-25T21:53:44.823Z,17.80
2018-01-25T21:56:12.251Z,16.43
2018-01-25T21:58:39.687Z,15.13
2018-01-25T22:01:07.120Z,12.57
2018-01-25T22:03:34.551Z,14.20
2018-01-25T22:06:02.029Z,15.07
2018-01-25T22:08:29.448Z,13.97
2018-01-25T22:10:57.635Z,14.33
2018-01-25T22:13:25.070Z,12.93
2018-01-25T22:15:52.581Z,12.30
2018-01-25T22:18:20.007Z,11.43
2018-01-25T22:20:47.427Z,10.90
2018-01-25T22:23:14.860Z,11.17
2018-01-25T22:25:42.294Z,12.00
2018-01-25T22:28:09.859Z,9.10
2018-01-25T22:30:37.280Z,9.60
2018-01-25T22:33:04.711Z,12.00
2018-01-25T22:35:32.139Z,9.70
2018-01-25T22:37:59.568Z,13.07
2018-01-25T22:40:27.002Z,10.13
2018-01-25T22:42:54.426Z,10.60
2018-01-25T22:45:22.051Z,8.90
2018-01-25T22:47:49.476Z,10.33
2018-01-25T22:50:16.911Z,10.70
2018-01-25T22:52:44.336Z,9.63
2018-01-25T22:55:11.775Z,10.13
2018-01-25T22:57:39.331Z,9.67
2018-01-25T23:00:06.764Z,12.20
2018-01-25T23:02:34.239Z,12.80
2018-01-25T23:05:01.675Z,8.67
2018-01-25T23:07:29.097Z,9.43
2018-01-25T23:09:56.527Z,8.00
2018-01-25T23:12:23.958Z,11.63
2018-01-25T23:14:51.372Z,8.90
2018-01-25T23:17:19.575Z,11.57
2018-01-25T23:19:47.051Z,8.70
2018-01-25T23:22:14.491Z,9.00
2018-01-25T23:24:41.916Z,8.00
2018-01-25T23:27:09.356Z,7.47
2018-01-25T23:29:36.775Z,7.23
2018-01-25T23:32:04.203Z,6.87
2018-01-25T23:34:31.650Z,5.93
2018-01-25T23:36:59.855Z,5.43
2018-01-25T23:39:27.272Z,4.90
2018-01-25T23:41:54.703Z,3.80
2018-01-25T23:44:22.131Z,4.50
2018-01-25T23:46:49.563Z,5.63
2018-01-25T23:49:16.983Z,4.80
2018-01-25T23:51:44.412Z,4.80
2018-01-25T23:54:11.831Z,5.63
2018-01-25T23:56:39.264Z,5.47
2018-01-25T23:59:06.683Z,5.07
